createdAt,value
2024-01-22T00:01:36.859Z,4.40
2024-01-22T00:06:42.175Z,4.40
2024-01-22T00:11:47.088Z,3.73
2024-01-22T00:16:51.486Z,3.63
2024-01-22T00:21:56.073Z,3.73
2024-01-22T00:27:04.969Z,3.43
2024-01-22T00:32:09.688Z,3.73
2024-01-22T00:37:13.138Z,3.43
2024-01-22T00:42:18.219Z,4.83
2024-01-22T00:47:22.679Z,3.40
2024-01-22T00:52:26.331Z,4.03
2024-01-22T00:57:32.171Z,3.53
2024-01-22T01:02:35.993Z,4.13
2024-01-22T01:07:39.412Z,3.73
2024-01-22T01:12:44.429Z,3.73
2024-01-22T01:17:49.699Z,3.50
2024-01-22T01:22:53.279Z,3.70
2024-01-22T01:27:58.012Z,4.13
2024-01-22T01:33:04.014Z,3.37
2024-01-22T01:38:07.304Z,4.23
2024-01-22T01:43:12.497Z,4.23
2024-01-22T01:48:17.269Z,3.77
2024-01-22T01:53:21.723Z,3.23
2024-01-22T01:58:26.653Z,3.20
2024-01-22T02:03:30.442Z,3.20
2024-01-22T02:08:33.830Z,3.33
2024-01-22T02:13:38.716Z,3.47
2024-01-22T02:18:42.610Z,3.43
2024-01-22T02:23:47.371Z,3.17
2024-01-22T02:28:50.620Z,3.33
2024-01-22T02:33:54.411Z,3.20
2024-01-22T02:38:59.415Z,3.50
2024-01-22T02:44:03.140Z,2.87
2024-01-22T02:49:06.769Z,3.23
2024-01-22T02:54:13.932Z,3.63
2024-01-22T02:59:18.711Z,3.30
2024-01-22T03:04:22.392Z,3.03
2024-01-22T03:09:27.419Z,3.60
2024-01-22T03:14:30.957Z,3.20
2024-01-22T03:19:34.422Z,3.67
2024-01-22T03:24:47.482Z,4.10
2024-01-22T03:29:50.889Z,3.50
2024-01-22T03:34:54.287Z,3.30
2024-01-22T03:40:19.285Z,3.00
2024-01-22T03:45:28.717Z,3.17
2024-01-22T03:50:33.517Z,3.10
2024-01-22T03:55:39.378Z,2.93
2024-01-22T04:00:46.524Z,3.27
2024-01-22T04:05:50.228Z,3.13
2024-01-22T04:10:55.009Z,2.70
2024-01-22T04:16:00.604Z,3.13
2024-01-22T04:21:04.074Z,2.63
2024-01-22T04:26:09.184Z,2.73
2024-01-22T04:31:12.656Z,2.60
2024-01-22T04:36:16.216Z,2.50
2024-01-22T04:41:21.616Z,2.30
2024-01-22T04:46:24.884Z,2.63
2024-01-22T04:51:35.289Z,2.67
2024-01-22T04:56:43.485Z,2.23
2024-01-22T05:01:46.904Z,2.23
2024-01-22T05:06:50.298Z,2.00
2024-01-22T05:12:02.027Z,2.00
2024-01-22T05:17:05.715Z,2.10
2024-01-22T05:22:09.494Z,1.53
2024-01-22T05:27:14.508Z,1.50
2024-01-22T07:42:03.956Z,0.80
2024-01-22T07:47:08.135Z,0.70
2024-01-22T07:57:37.430Z,0.40
2024-01-22T08:02:42.072Z,0.60
2024-01-22T08:07:48.532Z,0.60
2024-01-22T08:13:04.399Z,0.45
2024-01-22T08:18:08.176Z,0.50
2024-01-22T08:23:12.159Z,0.60
2024-01-22T08:28:18.281Z,0.40
2024-01-22T08:33:22.427Z,0.50
2024-01-22T08:38:26.147Z,0.50
2024-01-22T08:43:31.262Z,0.50
2024-01-22T08:48:38.060Z,0.47
2024-01-22T08:53:47.648Z,0.40
2024-01-22T08:58:53.204Z,0.45
2024-01-22T09:04:03.851Z,0.60
2024-01-22T09:09:11.104Z,0.55
2024-01-22T09:14:17.136Z,0.40
2024-01-22T09:19:20.870Z,0.40
2024-01-22T09:24:30.599Z,0.40
2024-01-22T09:29:35.888Z,0.30
2024-01-22T09:34:41.770Z,0.47
2024-01-22T09:39:46.775Z,0.38
2024-01-22T09:45:04.041Z,0.40
2024-01-22T09:50:16.712Z,0.40
2024-01-22T10:01:45.427Z,0.30
2024-01-22T10:06:50.473Z,0.32
2024-01-22T10:11:54.278Z,0.32
2024-01-22T10:16:59.413Z,0.30
2024-01-22T10:22:03.371Z,0.30
2024-01-22T10:27:16.566Z,0.30
2024-01-22T10:32:24.249Z,0.30
2024-01-22T10:37:27.993Z,0.30
2024-01-22T10:43:44.567Z,0.50
2024-01-22T10:49:14.348Z,0.50
2024-01-22T10:54:20.073Z,0.20
2024-01-22T10:59:26.309Z,0.30
2024-01-22T11:04:48.153Z,0.77
2024-01-22T11:10:02.782Z,0.43
2024-01-22T11:15:13.401Z,0.40
2024-01-22T11:20:21.731Z,0.40
2024-01-22T11:25:48.887Z,0.40
2024-01-22T11:30:58.315Z,0.30
2024-01-22T11:36:03.820Z,0.47
2024-01-22T11:41:07.462Z,0.30
2024-01-22T11:46:18.178Z,1.13
2024-01-22T11:51:33.073Z,0.32
2024-01-22T11:56:36.787Z,0.30
2024-01-22T12:01:48.363Z,0.40
2024-01-22T12:07:04.573Z,0.40
2024-01-22T12:12:09.224Z,0.40
2024-01-22T12:17:12.914Z,0.50
2024-01-22T12:22:17.848Z,0.60
2024-01-22T12:27:22.871Z,0.30
2024-01-22T12:32:33.620Z,0.50
2024-01-22T12:38:24.654Z,0.50
2024-01-22T12:43:43.404Z,0.50
2024-01-22T12:48:49.392Z,0.40
2024-01-22T12:53:54.205Z,0.40
2024-01-22T12:58:59.440Z,0.50
2024-01-22T13:04:05.430Z,0.43
2024-01-22T13:09:12.538Z,0.40
2024-01-22T13:14:19.206Z,0.40
2024-01-22T13:19:23.717Z,0.52
2024-01-22T13:24:27.572Z,0.77
2024-01-22T13:29:32.819Z,0.50
2024-01-22T13:34:38.408Z,0.57
2024-01-22T13:39:45.816Z,0.43
2024-01-22T13:44:53.031Z,0.60
2024-01-22T13:49:58.876Z,0.32
2024-01-22T13:55:06.290Z,0.52
2024-01-22T14:00:12.856Z,0.40
2024-01-22T14:05:16.508Z,0.40
2024-01-22T14:10:20.181Z,0.40
2024-01-22T14:15:25.245Z,0.30
2024-01-22T14:20:30.501Z,0.40
2024-01-22T14:25:40.939Z,0.57
2024-01-22T14:30:46.309Z,0.30
2024-01-22T14:35:53.319Z,0.28
2024-01-22T14:40:57.998Z,0.30
2024-01-22T14:46:03.084Z,0.20
2024-01-22T14:51:07.130Z,0.30
2024-01-22T14:56:18.615Z,0.20
2024-01-22T15:01:34.922Z,0.20
2024-01-22T15:06:39.818Z,0.20
2024-01-22T15:11:43.626Z,0.30
2024-01-22T15:16:49.203Z,0.30
2024-01-22T15:21:52.867Z,0.22
2024-01-22T15:26:56.515Z,0.25
2024-01-22T15:32:04.850Z,0.28
2024-01-22T15:37:08.362Z,0.30
2024-01-22T15:42:31.146Z,0.30
2024-01-22T15:47:36.408Z,0.30
2024-01-22T15:52:40.486Z,0.30
2024-01-22T15:57:45.009Z,0.20
2024-01-22T16:02:50.098Z,0.20
2024-01-22T16:07:54.534Z,0.25
2024-01-22T16:12:58.343Z,0.30
2024-01-22T16:18:03.767Z,0.25
2024-01-22T16:23:09.161Z,0.30
2024-01-22T16:28:20.419Z,0.40
2024-01-22T16:33:25.882Z,0.30
2024-01-22T16:38:31.460Z,0.20
2024-01-22T16:43:34.965Z,0.32
2024-01-22T16:48:40.028Z,0.30
2024-01-22T16:53:43.893Z,0.30
2024-01-22T16:58:48.222Z,0.30
2024-01-22T17:03:53.623Z,0.30
2024-01-22T17:08:57.498Z,0.20
2024-01-22T17:14:01.187Z,0.40
2024-01-22T17:19:06.330Z,0.30
2024-01-22T17:24:10.217Z,0.20
2024-01-22T17:29:13.888Z,0.30
2024-01-22T17:34:20.339Z,0.40
2024-01-22T17:39:26.053Z,0.30
2024-01-22T17:44:30.170Z,0.30
2024-01-22T17:49:35.685Z,0.32
2024-01-22T17:54:48.192Z,0.28
2024-01-22T17:59:52.168Z,0.25
2024-01-22T18:04:57.298Z,0.40
2024-01-22T18:10:01.181Z,0.30
2024-01-22T18:15:05.471Z,0.30
2024-01-22T18:20:13.674Z,0.22
2024-01-22T18:25:17.786Z,0.38
2024-01-22T18:30:25.893Z,0.30
2024-01-22T18:35:33.350Z,0.50
2024-01-22T18:40:37.149Z,0.30
2024-01-22T18:45:41.965Z,0.30
2024-01-22T18:50:49.180Z,0.22
2024-01-22T18:55:52.770Z,0.40
2024-01-22T19:00:56.488Z,0.30
2024-01-22T19:06:03.457Z,0.50
2024-01-22T19:11:09.492Z,0.45
2024-01-22T19:16:16.815Z,0.50
2024-01-22T19:21:22.224Z,0.50
2024-01-22T19:26:26.570Z,0.57
2024-01-22T19:31:46.716Z,0.50
2024-01-22T19:36:52.035Z,0.50
2024-01-22T19:41:55.702Z,0.50
2024-01-22T19:47:06.042Z,0.50
2024-01-22T19:52:11.452Z,0.38
2024-01-22T19:57:26.378Z,0.82
2024-01-22T20:02:32.492Z,0.40
2024-01-22T20:07:53.626Z,0.50
2024-01-22T20:12:58.577Z,0.40
2024-01-22T20:18:02.278Z,0.32
2024-01-22T20:23:07.666Z,0.40
2024-01-22T20:28:11.347Z,0.30
2024-01-22T20:33:15.210Z,0.40
2024-01-22T20:38:20.392Z,0.50
2024-01-22T20:43:24.201Z,0.32
2024-01-22T20:48:28.243Z,0.80
2024-01-22T20:53:36.124Z,0.52
2024-01-22T20:58:45.602Z,0.60
2024-01-22T21:03:54.039Z,0.70
2024-01-22T21:08:59.233Z,0.50
2024-01-22T21:14:06.139Z,0.57
2024-01-22T21:19:10.087Z,0.70
2024-01-22T21:24:15.780Z,0.60
2024-01-22T21:29:19.834Z,0.50
2024-01-22T21:34:25.111Z,0.55
2024-01-22T21:39:30.411Z,0.90
2024-01-22T21:44:34.055Z,0.70
2024-01-22T21:49:39.049Z,0.90
2024-01-22T21:54:45.420Z,0.80
2024-01-22T21:59:50.904Z,0.65
2024-01-22T22:04:54.949Z,0.70
2024-01-22T22:10:00.570Z,0.70
2024-01-22T22:15:07.270Z,0.50
2024-01-22T22:20:12.996Z,0.60
2024-01-22T22:25:19.780Z,0.60
2024-01-22T22:30:23.595Z,0.52
2024-01-22T22:35:28.568Z,1.17
2024-01-22T22:40:33.798Z,0.57
2024-01-22T22:45:38.004Z,0.50
2024-01-22T22:50:50.055Z,0.80
2024-01-22T22:55:55.167Z,0.68
2024-01-22T23:01:12.334Z,0.88
2024-01-22T23:06:16.349Z,0.50
2024-01-22T23:11:22.224Z,0.70
2024-01-22T23:17:12.729Z,1.25
2024-01-22T23:28:03.315Z,0.57
2024-01-22T23:33:10.210Z,0.40
2024-01-22T23:38:15.084Z,0.60
2024-01-22T23:43:20.313Z,0.65
